Time;durP1;ratioP1;P1;durP2;ratioP2;P2;SDS_P1;SDS_P2;PMS_P1;PMS_P2;Temp;Humidity;BMP_temperature;BMP_pressure;BME280_temperature;BME280_humidity;BME280_pressure;Samples;Min_cycle;Max_cycle;Signal;HPM_P1;HPM_P2
2022/04/18 00:01:54;;;;;;;0.82;0.75;;;4.50;80.80;;;;;;5055301;28;20021;-72
2022/04/18 00:04:20;;;;;;;0.30;0.30;;;4.50;80.90;;;;;;5055247;28;20025;-72
2022/04/18 00:06:46;;;;;;;0.35;0.35;;;4.50;81.00;;;;;;5055122;28;20040;-72
2022/04/18 00:09:12;;;;;;;1.20;1.17;;;4.50;81.20;;;;;;5055077;28;20033;-73
2022/04/18 00:11:38;;;;;;;0.30;0.30;;;4.50;81.90;;;;;;5055106;28;20032;-73
2022/04/18 00:14:04;;;;;;;0.38;0.38;;;4.40;82.60;;;;;;5037347;28;20048;-72
2022/04/18 00:16:29;;;;;;;0.28;0.28;;;4.60;82.40;;;;;;5054805;28;20032;-72
2022/04/18 00:18:55;;;;;;;0.30;0.30;;;4.70;81.10;;;;;;5055105;28;20032;-72
2022/04/18 00:21:21;;;;;;;0.30;0.30;;;4.80;81.60;;;;;;5055262;28;20420;-72
2022/04/18 00:23:47;;;;;;;2.28;1.30;;;4.80;80.80;;;;;;5054885;28;20025;-72
2022/04/18 00:26:13;;;;;;;0.60;0.60;;;4.90;81.70;;;;;;5054532;28;20020;-73
2022/04/18 00:28:39;;;;;;;0.30;0.30;;;4.80;81.00;;;;;;5054760;28;20033;-73
2022/04/18 00:31:05;;;;;;;0.45;0.45;;;4.90;80.80;;;;;;5054838;28;20032;-73
2022/04/18 00:33:31;;;;;;;0.77;0.77;;;4.80;81.00;;;;;;5037073;28;20025;-72
2022/04/18 00:35:57;;;;;;;0.40;0.40;;;4.90;81.00;;;;;;5054657;28;20489;-73
2022/04/18 00:38:23;;;;;;;0.30;0.30;;;4.80;80.80;;;;;;5054553;28;20032;-73
2022/04/18 00:40:49;;;;;;;0.30;0.30;;;4.70;80.70;;;;;;5036834;28;20033;-73
2022/04/18 00:43:15;;;;;;;1.95;1.85;;;4.70;80.80;;;;;;5054509;28;20029;-73
2022/04/18 00:45:41;;;;;;;1.02;1.02;;;4.60;80.80;;;;;;5054330;28;20032;-73
2022/04/18 00:48:07;;;;;;;0.30;0.30;;;4.50;81.10;;;;;;5054447;28;20028;-72
2022/04/18 00:50:35;;;;;;;0.50;0.50;;;4.30;81.40;;;;;;5036634;28;20017;-73
2022/04/18 00:53:03;;;;;;;0.30;0.30;;;4.10;81.40;;;;;;5054360;28;20029;-73
2022/04/18 00:55:32;;;;;;;0.40;0.40;;;4.00;81.80;;;;;;5054238;28;20025;-72
2022/04/18 00:58:00;;;;;;;0.43;0.43;;;4.00;83.00;;;;;;5036414;28;20025;-72
2022/04/18 01:00:26;;;;;;;0.30;0.30;;;3.80;82.80;;;;;;5036308;28;20441;-72
2022/04/18 01:02:51;;;;;;;0.30;0.30;;;3.80;83.20;;;;;;5054208;28;20112;-72
2022/04/18 01:05:18;;;;;;;0.30;0.30;;;3.70;82.80;;;;;;5035374;28;20078;-71
2022/04/18 01:07:44;;;;;;;0.40;0.40;;;3.70;83.20;;;;;;5053896;28;20029;-72
2022/04/18 01:10:10;;;;;;;2.20;0.93;;;3.90;83.20;;;;;;5054125;28;20032;-71
2022/04/18 01:12:36;;;;;;;0.50;0.50;;;4.10;82.40;;;;;;5054327;28;20052;-72
2022/04/18 01:15:02;;;;;;;0.22;0.22;;;4.20;81.70;;;;;;5036100;28;20025;-72
2022/04/18 01:17:28;;;;;;;0.50;0.50;;;4.30;81.10;;;;;;5053738;28;20120;-72
2022/04/18 01:19:53;;;;;;;0.40;0.40;;;4.30;80.70;;;;;;5053862;28;20057;-73
2022/04/18 01:22:19;;;;;;;0.50;0.50;;;4.40;80.80;;;;;;5036034;28;20025;-72
2022/04/18 01:30:35;;;;;;;0.30;0.30;;;3.80;81.10;;;;;;4991984;28;20366;-72
2022/04/18 01:33:00;;;;;;;0.40;0.40;;;3.60;81.60;;;;;;4992186;28;20124;-72
2022/04/18 01:35:26;;;;;;;0.30;0.30;;;3.50;82.90;;;;;;5020147;28;20037;-72
2022/04/18 01:37:52;;;;;;;0.30;0.30;;;3.50;83.10;;;;;;5053191;28;20052;-72
2022/04/18 01:40:17;;;;;;;0.30;0.30;;;3.60;83.40;;;;;;5053470;28;20033;-72
2022/04/18 01:42:43;;;;;;;0.38;0.38;;;3.50;82.50;;;;;;5035508;28;20028;-72
2022/04/18 01:45:09;;;;;;;0.40;0.40;;;3.40;84.10;;;;;;5035563;28;20503;-72
2022/04/18 01:47:35;;;;;;;0.30;0.30;;;3.50;84.50;;;;;;5035430;28;20473;-72
2022/04/18 01:50:01;;;;;;;0.40;0.40;;;3.60;84.80;;;;;;5053265;28;20024;-72
2022/04/18 01:52:27;;;;;;;0.30;0.30;;;3.80;84.70;;;;;;5053188;28;20365;-72
2022/04/18 01:54:52;;;;;;;0.30;0.30;;;3.80;83.90;;;;;;5035285;28;20116;-71
2022/04/18 01:57:18;;;;;;;0.30;0.30;;;4.00;84.00;;;;;;5018541;28;20108;-71
2022/04/18 01:59:44;;;;;;;0.50;0.50;;;4.00;83.80;;;;;;5053042;28;20032;-72
2022/04/18 02:02:10;;;;;;;0.30;0.30;;;3.90;83.80;;;;;;5053123;28;20100;-72
2022/04/18 02:04:36;;;;;;;0.40;0.40;;;3.70;84.00;;;;;;5052988;28;20021;-72
2022/04/18 02:07:02;;;;;;;0.70;0.70;;;3.70;85.20;;;;;;5052740;28;20432;-73
2022/04/18 02:09:28;;;;;;;0.30;0.30;;;3.80;85.70;;;;;;5052894;28;20021;-73
2022/04/18 02:11:54;;;;;;;0.60;0.60;;;3.90;85.20;;;;;;5018484;28;20025;-73
2022/04/18 02:14:19;;;;;;;0.35;0.35;;;4.00;84.50;;;;;;5052854;28;20021;-73
2022/04/18 02:16:45;;;;;;;0.30;0.30;;;4.20;83.40;;;;;;5051564;28;20025;-73
2022/04/18 02:19:11;;;;;;;0.73;0.73;;;4.30;82.90;;;;;;5034995;28;20478;-71
2022/04/18 02:21:37;;;;;;;0.40;0.40;;;4.10;82.90;;;;;;5034919;28;20101;-72
2022/04/18 02:24:02;;;;;;;4.03;3.28;;;4.10;84.60;;;;;;5034805;28;20025;-71
2022/04/18 02:26:28;;;;;;;0.80;0.80;;;4.20;84.10;;;;;;5034416;28;20178;-71
2022/04/18 02:28:55;;;;;;;0.50;0.50;;;4.30;83.20;;;;;;5034594;28;20033;-71
2022/04/18 02:31:21;;;;;;;0.52;0.52;;;4.00;81.70;;;;;;5052506;28;20024;-72
2022/04/18 02:33:46;;;;;;;0.30;0.30;;;3.50;82.60;;;;;;5018183;28;20029;-71
2022/04/18 02:36:12;;;;;;;0.40;0.40;;;3.10;84.30;;;;;;5034200;28;20021;-71
2022/04/18 02:38:38;;;;;;;1.15;1.15;;;3.00;85.60;;;;;;5052301;28;20029;-72
2022/04/18 02:41:04;;;;;;;0.50;0.50;;;3.20;86.40;;;;;;5052394;28;20384;-72
2022/04/18 02:43:29;;;;;;;0.40;0.40;;;3.20;84.00;;;;;;5034668;28;20036;-72
2022/04/18 02:45:55;;;;;;;0.30;0.30;;;3.10;84.60;;;;;;5034258;28;20082;-73
2022/04/18 02:48:21;;;;;;;0.30;0.30;;;3.10;85.00;;;;;;5034278;28;20028;-73
2022/04/18 02:50:46;;;;;;;0.40;0.40;;;3.10;84.90;;;;;;5052262;28;20021;-73
2022/04/18 02:53:12;;;;;;;0.38;0.38;;;3.00;85.10;;;;;;5052100;28;20079;-73
2022/04/18 02:55:38;;;;;;;0.40;0.40;;;2.90;85.70;;;;;;5034217;28;20021;-72
2022/04/18 02:58:04;;;;;;;1.30;1.15;;;2.90;86.30;;;;;;5052174;28;20464;-73
2022/04/18 03:00:30;;;;;;;0.40;0.40;;;3.00;86.90;;;;;;5051969;28;20041;-72
2022/04/18 03:02:55;;;;;;;0.40;0.40;;;3.00;86.00;;;;;;5034176;28;20021;-72
2022/04/18 03:05:21;;;;;;;0.30;0.30;;;3.00;86.20;;;;;;5051876;28;20500;-72
2022/04/18 03:07:47;;;;;;;0.40;0.40;;;3.00;87.00;;;;;;5052091;28;20029;-72
2022/04/18 03:10:12;;;;;;;0.85;0.82;;;3.00;86.40;;;;;;5034159;28;20151;-72
2022/04/18 03:12:38;;;;;;;0.40;0.40;;;2.90;87.50;;;;;;5051990;28;20021;-72
2022/04/18 03:15:05;;;;;;;0.50;0.50;;;2.90;88.60;;;;;;5034189;28;20074;-73
2022/04/18 03:17:31;;;;;;;0.45;0.45;;;3.00;87.80;;;;;;5033900;28;20515;-72
2022/04/18 03:19:56;;;;;;;0.35;0.35;;;2.90;86.50;;;;;;5051849;28;20139;-72
2022/04/18 03:22:24;;;;;;;0.30;0.30;;;3.00;87.00;;;;;;5034016;28;20540;-72
2022/04/18 03:24:49;;;;;;;0.30;0.30;;;2.90;85.80;;;;;;5033940;28;20121;-72
2022/04/18 03:27:15;;;;;;;0.90;0.90;;;2.70;86.60;;;;;;5051590;28;20056;-72
2022/04/18 03:29:41;;;;;;;0.40;0.40;;;2.80;88.30;;;;;;5055426;28;20087;-72
2022/04/18 03:32:07;;;;;;;0.38;0.38;;;2.80;87.70;;;;;;5055973;28;20025;-72
2022/04/18 03:34:33;;;;;;;0.30;0.30;;;2.80;86.90;;;;;;5021476;28;20391;-71
2022/04/18 03:39:52;;;;;;;0.40;0.40;;;2.90;87.60;;;;;;5037778;28;20028;-72
2022/04/18 03:42:19;;;;;;;0.30;0.30;;;2.90;87.00;;;;;;5037823;28;20025;-71
2022/04/18 03:44:48;;;;;;;0.90;0.90;;;2.80;86.50;;;;;;5055580;28;20025;-72
2022/04/18 03:47:15;;;;;;;0.40;0.40;;;2.80;87.10;;;;;;5055414;28;20047;-72
2022/04/18 03:49:41;;;;;;;1.85;0.70;;;2.60;87.30;;;;;;5055475;28;20025;-71
2022/04/18 03:52:08;;;;;;;0.40;0.40;;;2.60;88.20;;;;;;5055514;28;20021;-72
2022/04/18 03:54:39;;;;;;;0.30;0.30;;;2.50;88.60;;;;;;5037493;28;20025;-72
2022/04/18 03:57:06;;;;;;;1.45;0.60;;;2.50;89.00;;;;;;5037250;28;20021;-72
2022/04/18 03:59:32;;;;;;;2.20;1.95;;;2.50;87.50;;;;;;5055256;28;20037;-72
2022/04/18 04:01:58;;;;;;;0.68;0.68;;;2.40;87.90;;;;;;5055363;28;20109;-72
2022/04/18 04:04:25;;;;;;;0.40;0.40;;;2.40;89.10;;;;;;5037409;28;20438;-72
2022/04/18 04:06:50;;;;;;;0.40;0.40;;;2.40;88.40;;;;;;5020709;28;20032;-73
2022/04/18 04:09:16;;;;;;;0.40;0.40;;;2.40;88.90;;;;;;5055172;28;20028;-73
2022/04/18 04:11:42;;;;;;;0.30;0.30;;;2.40;88.70;;;;;;5055132;28;20029;-73
2022/04/18 04:14:08;;;;;;;0.30;0.30;;;2.50;88.80;;;;;;5055161;28;20063;-72
2022/04/18 04:16:34;;;;;;;1.02;1.02;;;2.60;89.70;;;;;;5054771;28;20155;-73
2022/04/18 04:19:00;;;;;;;0.40;0.40;;;2.90;89.40;;;;;;5055152;28;20032;-72
2022/04/18 04:21:26;;;;;;;11.73;11.02;;;2.90;88.10;;;;;;5054970;28;20036;-72
2022/04/18 04:23:52;;;;;;;0.40;0.40;;;2.90;87.10;;;;;;5054982;28;20033;-73
2022/04/18 04:26:17;;;;;;;9.63;5.65;;;2.90;87.00;;;;;;5036745;28;20060;-72
2022/04/18 04:28:43;;;;;;;0.40;0.40;;;2.80;86.60;;;;;;5054789;28;20044;-73
2022/04/18 04:31:09;;;;;;;0.30;0.30;;;2.80;87.00;;;;;;5054741;28;20021;-73
2022/04/18 04:33:35;;;;;;;0.30;0.30;;;2.70;86.80;;;;;;5054787;28;20017;-72
2022/04/18 04:36:01;;;;;;;0.40;0.40;;;2.60;87.30;;;;;;5036873;28;20498;-73
2022/04/18 04:38:27;;;;;;;0.35;0.35;;;2.60;88.00;;;;;;5036630;28;20032;-73
2022/04/18 04:40:53;;;;;;;0.30;0.30;;;2.70;88.40;;;;;;5053469;28;20033;-72
2022/04/18 04:43:27;;;;;;;0.50;0.50;;;2.70;88.90;;;;;;5054705;28;20032;-73
2022/04/18 04:45:54;;;;;;;0.30;0.30;;;2.80;88.40;;;;;;5054384;28;20025;-72
2022/04/18 04:48:20;;;;;;;0.47;0.47;;;3.00;87.70;;;;;;5054528;28;20052;-72
2022/04/18 04:50:46;;;;;;;0.40;0.40;;;3.20;89.50;;;;;;5054575;28;20147;-74
2022/04/18 04:53:12;;;;;;;0.40;0.40;;;3.20;87.10;;;;;;5054500;28;20112;-73
2022/04/18 04:55:37;;;;;;;0.38;0.38;;;3.10;87.90;;;;;;5054236;28;20064;-72
2022/04/18 04:58:03;;;;;;;0.30;0.30;;;3.10;87.10;;;;;;5054536;28;20545;-75
2022/04/18 05:00:30;;;;;;;0.30;0.30;;;3.20;87.40;;;;;;5054257;28;20070;-72
2022/04/18 05:02:56;;;;;;;0.40;0.40;;;3.30;87.20;;;;;;5054269;28;20021;-72
2022/04/18 05:05:22;;;;;;;0.50;0.50;;;3.30;86.50;;;;;;5019705;28;20029;-72
2022/04/18 05:07:48;;;;;;;0.40;0.40;;;3.30;86.60;;;;;;5053980;28;20501;-72
2022/04/18 05:10:15;;;;;;;0.32;0.32;;;3.30;87.60;;;;;;5054294;28;20017;-72
2022/04/18 05:12:42;;;;;;;0.30;0.30;;;3.60;87.30;;;;;;5054089;28;20018;-72
2022/04/18 05:15:08;;;;;;;0.30;0.30;;;3.80;86.80;;;;;;5054052;28;20029;-72
2022/04/18 05:17:34;;;;;;;0.57;0.57;;;3.90;86.80;;;;;;5053859;28;20032;-71
2022/04/18 05:20:02;;;;;;;0.40;0.40;;;4.00;85.90;;;;;;5036210;28;20469;-73
2022/04/18 05:22:29;;;;;;;0.95;0.95;;;4.20;85.90;;;;;;5053989;28;20051;-73
2022/04/18 05:24:55;;;;;;;0.30;0.30;;;4.30;85.30;;;;;;5053864;28;20032;-73
2022/04/18 05:27:21;;;;;;;0.30;0.30;;;4.20;84.30;;;;;;5053603;28;20100;-73
2022/04/18 05:29:47;;;;;;;0.40;0.40;;;4.10;84.30;;;;;;5053776;28;20047;-73
2022/04/18 05:32:13;;;;;;;0.30;0.30;;;3.90;84.60;;;;;;5036023;28;20029;-72
2022/04/18 05:34:38;;;;;;;0.40;0.40;;;3.60;85.40;;;;;;5053688;28;20028;-72
2022/04/18 05:37:04;;;;;;;0.32;0.32;;;3.70;85.10;;;;;;5053087;28;20112;-72
2022/04/18 05:39:30;;;;;;;3.55;3.35;;;3.90;85.00;;;;;;5053652;28;20033;-72
2022/04/18 05:41:56;;;;;;;0.30;0.30;;;4.00;84.70;;;;;;5053556;28;20078;-72
2022/04/18 05:44:22;;;;;;;0.30;0.30;;;4.10;85.60;;;;;;5053492;28;20029;-72
2022/04/18 05:46:49;;;;;;;0.30;0.30;;;4.10;86.00;;;;;;5053197;28;20025;-72
2022/04/18 05:49:14;;;;;;;0.30;0.30;;;4.00;87.60;;;;;;5053435;28;20029;-72
2022/04/18 05:51:40;;;;;;;0.30;0.30;;;4.00;88.80;;;;;;5035057;28;20025;-71
2022/04/18 05:54:06;;;;;;;0.30;0.30;;;4.20;90.00;;;;;;5053450;28;20029;-71
2022/04/18 05:56:32;;;;;;;0.30;0.30;;;4.60;88.60;;;;;;5053110;28;20021;-71
2022/04/18 05:58:58;;;;;;;0.30;0.30;;;4.60;87.70;;;;;;5053145;28;20082;-72
2022/04/18 06:01:24;;;;;;;0.32;0.32;;;4.70;86.90;;;;;;5035090;28;20519;-73
2022/04/18 06:03:50;;;;;;;0.30;0.30;;;4.90;85.90;;;;;;5052733;28;20029;-72
2022/04/18 06:06:16;;;;;;;0.30;0.30;;;4.80;86.90;;;;;;5061549;28;20040;-72
2022/04/18 06:08:42;;;;;;;0.40;0.40;;;4.90;87.50;;;;;;5035222;28;20057;-72
2022/04/18 06:11:08;;;;;;;0.40;0.40;;;4.90;86.00;;;;;;5053226;28;20104;-72
2022/04/18 06:13:34;;;;;;;0.38;0.38;;;4.90;87.00;;;;;;5065081;28;20068;-72
2022/04/18 06:16:00;;;;;;;1.85;1.27;;;5.00;86.80;;;;;;5072568;28;20119;-73
2022/04/18 06:18:26;;;;;;;0.38;0.38;;;4.80;87.40;;;;;;5065562;28;20100;-71
2022/04/18 06:20:52;;;;;;;2.30;2.10;;;4.90;89.80;;;;;;5036957;28;20029;-71
2022/04/18 06:23:18;;;;;;;0.57;0.57;;;5.00;88.20;;;;;;5072689;28;20099;-71
2022/04/18 06:25:44;;;;;;;0.50;0.50;;;4.90;89.20;;;;;;5072498;28;20108;-70
2022/04/18 06:28:12;;;;;;;1.30;1.30;;;5.00;90.10;;;;;;5072593;28;20052;-71
2022/04/18 06:30:38;;;;;;;0.30;0.30;;;5.00;89.90;;;;;;5072664;28;20021;-72
2022/04/18 06:33:04;;;;;;;0.40;0.40;;;5.10;90.00;;;;;;5072725;28;20017;-72
2022/04/18 06:35:30;;;;;;;0.93;0.93;;;5.40;88.90;;;;;;5037847;28;20526;-71
2022/04/18 06:37:56;;;;;;;0.30;0.30;;;5.20;88.10;;;;;;5070450;28;20025;-72
2022/04/18 06:40:22;;;;;;;0.45;0.45;;;5.50;89.10;;;;;;5052607;28;20029;-71
2022/04/18 06:42:49;;;;;;;0.30;0.30;;;5.50;86.80;;;;;;5052445;28;20033;-72
2022/04/18 06:45:15;;;;;;;0.35;0.35;;;5.40;86.80;;;;;;5052468;28;20025;-72
2022/04/18 06:47:40;;;;;;;0.30;0.30;;;5.60;86.70;;;;;;5052410;28;20055;-73
2022/04/18 06:50:10;;;;;;;0.40;0.40;;;5.70;85.60;;;;;;5052263;28;20079;-73
2022/04/18 06:52:49;;;;;;;0.40;0.40;;;5.90;86.50;;;;;;5052254;28;20096;-72
2022/04/18 06:55:16;;;;;;;0.52;0.52;;;6.00;84.90;;;;;;5017942;28;20120;-73
2022/04/18 06:57:42;;;;;;;0.20;0.20;;;5.90;84.60;;;;;;5052057;28;20055;-72
2022/04/18 07:00:09;;;;;;;0.40;0.40;;;5.90;85.60;;;;;;5052056;28;20075;-72
2022/04/18 07:02:35;;;;;;;0.30;0.30;;;6.10;86.70;;;;;;5033759;28;20051;-72
2022/04/18 07:05:01;;;;;;;0.30;0.30;;;6.30;86.60;;;;;;5052043;28;20087;-72
2022/04/18 07:07:27;;;;;;;0.60;0.60;;;6.30;87.00;;;;;;5051834;28;20380;-72
2022/04/18 07:09:53;;;;;;;0.85;0.75;;;6.30;86.90;;;;;;5051493;28;20100;-72
2022/04/18 07:12:23;;;;;;;0.40;0.40;;;6.20;86.40;;;;;;5067890;28;20468;-72
2022/04/18 07:14:49;;;;;;;0.30;0.30;;;6.20;86.60;;;;;;5066225;28;20030;-71
2022/04/18 07:17:15;;;;;;;1.65;1.08;;;6.30;85.40;;;;;;5037250;28;20041;-71
2022/04/18 07:19:41;;;;;;;0.38;0.38;;;6.50;83.60;;;;;;5043287;28;20032;-71
2022/04/18 07:22:07;;;;;;;0.50;0.50;;;6.60;83.60;;;;;;5068611;28;20519;-72
2022/04/18 07:24:34;;;;;;;4.75;1.05;;;6.80;82.60;;;;;;5051850;28;20107;-72
2022/04/18 07:27:01;;;;;;;0.85;0.85;;;6.90;80.90;;;;;;5052591;28;20029;-71
2022/04/18 07:29:30;;;;;;;1.17;1.10;;;6.90;80.50;;;;;;5051784;28;20032;-72
2022/04/18 07:31:56;;;;;;;0.30;0.30;;;7.20;80.80;;;;;;5050565;28;20025;-72
2022/04/18 07:34:22;;;;;;;0.55;0.55;;;7.40;79.70;;;;;;5050948;28;20048;-72
2022/04/18 07:36:48;;;;;;;0.45;0.45;;;7.70;79.90;;;;;;5051256;28;20055;-72
2022/04/18 07:39:14;;;;;;;0.30;0.30;;;8.00;78.30;;;;;;5071788;28;20451;-72
2022/04/18 07:41:39;;;;;;;4.68;1.20;;;8.20;77.90;;;;;;5070487;28;20103;-72
2022/04/18 07:44:05;;;;;;;0.57;0.57;;;8.30;76.50;;;;;;5071500;28;20388;-72
2022/04/18 07:46:32;;;;;;;0.20;0.20;;;8.40;76.10;;;;;;5069692;28;20075;-72
2022/04/18 07:48:59;;;;;;;0.57;0.57;;;8.50;75.90;;;;;;5041952;28;20480;-72
2022/04/18 07:51:41;;;;;;;0.30;0.30;;;8.30;75.00;;;;;;5065011;28;20104;-72
2022/04/18 07:54:10;;;;;;;1.65;0.75;;;8.50;74.80;;;;;;5017290;28;20477;-72
2022/04/18 07:56:37;;;;;;;0.75;0.75;;;8.70;74.30;;;;;;5065543;28;20027;-72
2022/04/18 07:59:03;;;;;;;0.68;0.65;;;8.70;72.80;;;;;;5071712;28;20141;-72
2022/04/18 08:01:29;;;;;;;0.70;0.70;;;8.90;72.60;;;;;;5071618;28;20510;-73
2022/04/18 08:03:56;;;;;;;0.20;0.20;;;9.00;71.50;;;;;;5053581;28;20035;-73
2022/04/18 08:06:22;;;;;;;0.28;0.28;;;9.00;71.30;;;;;;5071223;28;20036;-73
2022/04/18 08:08:48;;;;;;;1.98;1.00;;;9.20;70.90;;;;;;5071757;28;20388;-72
2022/04/18 08:11:16;;;;;;;0.30;0.30;;;9.30;69.70;;;;;;5053506;28;20025;-73
2022/04/18 08:13:43;;;;;;;1.52;1.08;;;9.30;69.50;;;;;;5053768;28;20035;-72
2022/04/18 08:16:09;;;;;;;0.90;0.60;;;9.40;68.90;;;;;;5074932;28;20502;-72
2022/04/18 08:18:36;;;;;;;0.20;0.20;;;9.80;68.40;;;;;;5057301;28;20024;-73
2022/04/18 08:21:06;;;;;;;0.45;0.45;;;9.90;66.20;;;;;;5057729;28;20044;-73
2022/04/18 08:23:32;;;;;;;0.50;0.50;;;9.90;64.40;;;;;;5076406;28;20071;-73
2022/04/18 08:25:59;;;;;;;0.40;0.40;;;9.90;63.10;;;;;;5075582;28;20376;-73
2022/04/18 08:28:26;;;;;;;1.58;1.48;;;10.10;63.30;;;;;;5075693;28;20024;-73
2022/04/18 08:30:52;;;;;;;1.75;1.05;;;10.40;63.90;;;;;;5075056;28;20154;-73
2022/04/18 08:33:18;;;;;;;0.88;0.73;;;10.40;62.40;;;;;;5074824;28;20383;-73
2022/04/18 08:35:44;;;;;;;0.50;0.50;;;10.20;61.40;;;;;;5056626;28;20024;-73
2022/04/18 08:38:10;;;;;;;3.38;1.08;;;10.30;61.60;;;;;;5074777;28;20021;-73
2022/04/18 08:40:37;;;;;;;0.30;0.30;;;10.50;60.70;;;;;;5074669;28;20024;-73
2022/04/18 08:43:02;;;;;;;0.60;0.60;;;10.50;59.60;;;;;;5074674;28;20116;-73
2022/04/18 08:45:28;;;;;;;0.90;0.90;;;10.50;59.70;;;;;;5056696;28;20534;-73
2022/04/18 08:53:27;;;;;;;1.17;0.95;;;10.90;59.10;;;;;;5074497;28;20100;-73
2022/04/18 08:55:54;;;;;;;0.60;0.60;;;10.80;58.70;;;;;;5056310;28;20071;-73
2022/04/18 08:58:24;;;;;;;1.60;1.50;;;11.00;58.60;;;;;;5056489;28;20040;-73
2022/04/18 09:00:50;;;;;;;0.38;0.38;;;11.10;57.20;;;;;;5056310;28;20028;-72
2022/04/18 09:03:16;;;;;;;0.30;0.30;;;11.50;56.80;;;;;;5039693;28;20029;-73
2022/04/18 09:05:42;;;;;;;0.40;0.40;;;12.00;57.60;;;;;;5074013;28;20028;-73
2022/04/18 09:08:09;;;;;;;1.60;1.50;;;12.30;56.60;;;;;;5074171;28;20079;-73
2022/04/18 09:10:35;;;;;;;0.40;0.40;;;12.50;56.60;;;;;;5074153;28;20648;-73
2022/04/18 09:13:09;;;;;;;0.93;0.88;;;12.60;56.50;;;;;;5074103;28;20512;-73
2022/04/18 09:15:38;;;;;;;0.20;0.20;;;12.40;56.60;;;;;;5073951;28;20021;-73
2022/04/18 09:18:09;;;;;;;0.63;0.63;;;12.60;56.20;;;;;;5074046;28;20029;-73
2022/04/18 09:20:55;;;;;;;0.57;0.57;;;13.10;56.50;;;;;;5074093;28;20036;-73
2022/04/18 09:23:26;;;;;;;0.40;0.40;;;13.30;55.10;;;;;;5073947;28;20028;-73
2022/04/18 09:26:13;;;;;;;0.60;0.55;;;13.30;55.50;;;;;;5073083;28;20028;-73
2022/04/18 09:28:40;;;;;;;0.75;0.75;;;13.60;54.70;;;;;;5055774;28;20385;-73
2022/04/18 09:31:11;;;;;;;1.30;1.02;;;13.60;54.50;;;;;;5053563;28;20061;-73
2022/04/18 09:33:44;;;;;;;0.50;0.50;;;13.90;53.30;;;;;;5053782;28;20028;-73
2022/04/18 09:36:16;;;;;;;0.30;0.30;;;14.00;53.70;;;;;;5053507;28;20024;-73
2022/04/18 09:38:48;;;;;;;1.27;0.63;;;14.40;54.20;;;;;;5053656;28;20029;-73
2022/04/18 09:41:16;;;;;;;0.55;0.55;;;14.50;53.70;;;;;;5035697;28;20120;-73
2022/04/18 09:43:48;;;;;;;0.65;0.65;;;14.80;52.70;;;;;;5035718;28;20092;-73
2022/04/18 09:46:15;;;;;;;1.10;1.10;;;15.00;51.80;;;;;;5063976;28;20091;-72
2022/04/18 09:48:45;;;;;;;1.20;1.08;;;15.00;48.50;;;;;;5064152;28;20420;-72
2022/04/18 09:51:14;;;;;;;0.73;0.70;;;15.00;47.60;;;;;;5053245;28;20017;-72
2022/04/18 09:53:43;;;;;;;5.28;0.45;;;14.70;48.50;;;;;;5068125;28;20495;-72
2022/04/18 09:56:17;;;;;;;0.40;0.30;;;15.00;48.60;;;;;;5055276;28;20147;-72
2022/04/18 09:58:43;;;;;;;0.30;0.30;;;15.00;48.80;;;;;;5073158;28;20024;-72
2022/04/18 10:01:11;;;;;;;0.40;0.40;;;15.00;48.70;;;;;;5064021;28;20435;-72
2022/04/18 10:03:37;;;;;;;1.67;1.58;;;15.40;48.60;;;;;;5053148;28;20035;-74
2022/04/18 10:06:05;;;;;;;0.85;0.70;;;15.70;47.80;;;;;;5034845;28;20071;-75
2022/04/18 10:08:32;;;;;;;0.43;0.43;;;15.80;46.60;;;;;;5052721;28;20048;-73
2022/04/18 10:10:59;;;;;;;0.13;0.13;;;15.70;46.00;;;;;;5034400;28;20100;-73
2022/04/18 10:13:26;;;;;;;0.35;0.35;;;15.50;45.60;;;;;;5052768;28;20029;-73
2022/04/18 10:15:53;;;;;;;0.82;0.77;;;15.90;46.80;;;;;;5052694;28;20021;-74
2022/04/18 10:18:19;;;;;;;0.80;0.80;;;16.30;45.80;;;;;;5052819;28;20044;-73
2022/04/18 10:21:06;;;;;;;3.25;1.70;;;16.10;45.10;;;;;;5052750;28;20418;-73
2022/04/18 10:23:57;;;;;;;4.80;1.15;;;16.00;44.80;;;;;;5053351;28;20029;-73
2022/04/18 10:26:53;;;;;;;0.22;0.22;;;16.40;44.40;;;;;;5034653;28;20036;-73
2022/04/18 10:29:33;;;;;;;0.10;0.10;;;16.90;45.00;;;;;;5052559;28;20036;-72
2022/04/18 10:32:03;;;;;;;1.52;1.00;;;16.90;44.70;;;;;;5052688;28;20021;-72
2022/04/18 10:34:31;;;;;;;2.17;0.90;;;17.00;41.90;;;;;;5052588;28;20017;-73
2022/04/18 10:37:00;;;;;;;0.45;0.45;;;16.90;42.90;;;;;;5051987;28;20028;-73
2022/04/18 10:39:37;;;;;;;0.50;0.50;;;16.70;44.30;;;;;;5051905;28;20102;-73
2022/04/18 10:42:29;;;;;;;0.38;0.20;;;17.10;44.40;;;;;;5052498;28;20025;-73
2022/04/18 10:44:59;;;;;;;0.40;0.40;;;17.40;43.20;;;;;;5030272;28;20037;-72
2022/04/18 10:47:25;;;;;;;0.25;0.25;;;17.20;42.80;;;;;;5052234;28;20078;-73
2022/04/18 10:50:14;;;;;;;0.52;0.52;;;17.10;42.90;;;;;;5034411;28;20124;-73
2022/04/18 10:52:40;;;;;;;0.93;0.82;;;17.80;42.10;;;;;;5052242;28;20029;-73
2022/04/18 10:55:17;;;;;;;0.68;0.68;;;17.30;42.20;;;;;;5052353;28;20025;-73
2022/04/18 10:57:43;;;;;;;1.42;0.65;;;17.30;42.40;;;;;;5034238;28;20028;-72
2022/04/18 11:00:09;;;;;;;2.20;1.25;;;18.00;41.60;;;;;;5052130;28;20029;-73
2022/04/18 11:02:42;;;;;;;3.53;1.65;;;18.30;39.90;;;;;;5034274;28;20059;-74
2022/04/18 11:05:08;;;;;;;0.20;0.20;;;18.30;39.50;;;;;;5052201;28;20086;-72
2022/04/18 11:07:38;;;;;;;1.20;1.02;;;17.70;40.10;;;;;;5033949;28;20025;-72
2022/04/18 11:10:20;;;;;;;1.95;0.73;;;17.60;40.10;;;;;;5052091;28;20461;-72
2022/04/18 11:12:47;;;;;;;2.30;1.52;;;17.40;41.20;;;;;;5034214;28;20485;-73
2022/04/18 11:15:13;;;;;;;2.67;1.50;;;17.50;40.50;;;;;;5034159;28;20033;-72
2022/04/18 11:17:42;;;;;;;2.47;1.05;;;17.60;39.10;;;;;;5051629;28;20031;-75
2022/04/18 11:20:27;;;;;;;3.33;1.38;;;17.60;38.90;;;;;;5051823;28;20021;-72
2022/04/18 11:23:22;;;;;;;0.63;0.30;;;17.80;37.70;;;;;;5051834;28;20108;-73
2022/04/18 11:26:01;;;;;;;0.38;0.32;;;17.90;37.50;;;;;;5033908;28;20377;-73
2022/04/18 11:28:41;;;;;;;0.17;0.17;;;18.30;37.00;;;;;;5051826;28;20053;-72
2022/04/18 11:31:09;;;;;;;1.42;1.38;;;18.80;37.10;;;;;;5051752;28;20021;-72
2022/04/18 11:33:42;;;;;;;1.20;0.85;;;18.70;38.40;;;;;;5051853;28;20032;-73
2022/04/18 11:36:09;;;;;;;0.30;0.30;;;18.30;37.90;;;;;;5051707;28;20024;-73
2022/04/18 11:38:35;;;;;;;0.20;0.20;;;18.00;37.20;;;;;;5051775;28;20472;-72
2022/04/18 11:41:12;;;;;;;0.85;0.85;;;17.70;37.80;;;;;;5033888;28;20025;-72
2022/04/18 11:43:38;;;;;;;1.55;1.15;;;17.80;37.40;;;;;;5051943;28;20044;-72
2022/04/18 11:46:09;;;;;;;0.20;0.20;;;18.00;36.80;;;;;;5051534;28;20029;-72
2022/04/18 11:48:38;;;;;;;0.30;0.30;;;18.20;34.90;;;;;;5051617;28;20033;-73
2022/04/18 11:51:05;;;;;;;0.88;0.82;;;18.10;35.20;;;;;;5037688;28;20040;-72
2022/04/18 11:53:33;;;;;;;0.70;0.68;;;18.30;36.80;;;;;;5055572;28;20075;-72
2022/04/18 11:56:06;;;;;;;0.45;0.45;;;18.30;36.80;;;;;;5055475;28;20027;-72
2022/04/18 11:58:36;;;;;;;0.10;0.10;;;18.10;36.70;;;;;;5037696;28;20064;-72
2022/04/18 12:06:45;;;;;;;0.52;0.50;;;18.20;37.10;;;;;;5037155;28;20029;-72
2022/04/18 12:09:12;;;;;;;0.52;0.40;;;18.50;35.30;;;;;;5055325;28;20017;-73
2022/04/18 12:11:38;;;;;;;1.27;1.20;;;18.10;34.90;;;;;;5055262;28;20025;-72
2022/04/18 12:14:04;;;;;;;0.10;0.10;;;17.90;36.40;;;;;;5055239;28;20079;-72
2022/04/18 12:16:34;;;;;;;0.10;0.10;;;17.60;36.90;;;;;;5054962;28;20049;-72
2022/04/18 12:19:00;;;;;;;0.35;0.35;;;17.70;36.40;;;;;;5055113;28;20033;-72
2022/04/18 12:21:26;;;;;;;0.10;0.10;;;17.50;36.20;;;;;;5036992;28;20500;-72
2022/04/18 12:23:55;;;;;;;0.40;0.40;;;17.00;37.30;;;;;;5037237;28;20102;-71
2022/04/18 12:26:27;;;;;;;1.13;1.02;;;16.90;38.00;;;;;;5054843;28;20029;-72
2022/04/18 12:29:11;;;;;;;0.30;0.30;;;16.70;38.20;;;;;;5054988;28;20032;-72
2022/04/18 12:31:41;;;;;;;0.47;0.47;;;16.20;38.30;;;;;;5054886;28;20377;-73
2022/04/18 12:34:15;;;;;;;0.10;0.10;;;16.20;38.70;;;;;;5055024;28;20487;-73
2022/04/18 12:36:41;;;;;;;0.52;0.52;;;16.40;39.20;;;;;;5054639;28;20017;-73
2022/04/18 12:39:06;;;;;;;0.30;0.30;;;16.30;38.50;;;;;;5054801;28;20506;-73
2022/04/18 12:41:40;;;;;;;1.50;0.43;;;16.10;38.70;;;;;;5054709;28;20039;-73
2022/04/18 12:44:13;;;;;;;0.60;0.47;;;15.90;39.20;;;;;;5054708;28;20060;-73
2022/04/18 12:46:39;;;;;;;0.20;0.20;;;15.90;38.40;;;;;;5054410;28;20017;-72
2022/04/18 12:49:10;;;;;;;0.20;0.20;;;15.50;40.00;;;;;;5036659;28;20116;-73
2022/04/18 12:51:38;;;;;;;0.35;0.35;;;15.40;39.10;;;;;;5036691;28;20028;-73
2022/04/18 12:54:16;;;;;;;0.30;0.30;;;15.50;39.30;;;;;;5054637;28;20025;-73
2022/04/18 12:56:46;;;;;;;4.60;0.85;;;15.60;38.90;;;;;;5054331;28;20025;-73
2022/04/18 12:59:14;;;;;;;0.57;0.50;;;15.70;38.90;;;;;;5054399;28;20036;-73
2022/04/18 13:01:40;;;;;;;0.75;0.75;;;15.20;38.60;;;;;;5053324;28;20029;-72
2022/04/18 13:04:23;;;;;;;0.85;0.52;;;15.30;39.20;;;;;;5054304;28;20078;-73
2022/04/18 13:07:06;;;;;;;0.10;0.10;;;15.40;39.30;;;;;;5036446;28;20060;-73
2022/04/18 13:09:33;;;;;;;0.20;0.20;;;15.50;39.90;;;;;;5054195;28;20389;-73
2022/04/18 13:12:07;;;;;;;0.20;0.20;;;15.10;39.60;;;;;;5054099;28;20044;-73
2022/04/18 13:14:34;;;;;;;0.10;0.10;;;15.20;39.80;;;;;;5054123;28;20025;-73
2022/04/18 13:17:10;;;;;;;1.20;0.50;;;15.30;39.20;;;;;;5053937;28;20029;-73